Time;durP1;ratioP1;P1;durP2;ratioP2;P2;SDS_P1;SDS_P2;PMS_P1;PMS_P2;Temp;Humidity;BMP_temperature;BMP_pressure;BME280_temperature;BME280_humidity;BME280_pressure;Samples;Min_cycle;Max_cycle;Signal;HPM_P1;HPM_P2
2023/08/28 00:02:16;;;;;;;3.25;3.00;;;17.30;68.00;;;;;;5014305;28;20146;-52
2023/08/28 00:04:44;;;;;;;2.58;2.38;;;17.30;68.20;;;;;;5027998;28;20089;-54
2023/08/28 00:07:13;;;;;;;3.05;2.65;;;17.30;67.90;;;;;;5010312;28;20057;-54
2023/08/28 00:09:40;;;;;;;2.97;2.78;;;17.30;67.80;;;;;;5028414;28;20137;-54
2023/08/28 00:12:10;;;;;;;3.08;2.60;;;17.30;67.90;;;;;;5028109;28;20041;-54
2023/08/28 00:14:37;;;;;;;3.20;2.90;;;17.30;67.90;;;;;;5027955;28;20092;-50
2023/08/28 00:17:06;;;;;;;4.30;3.03;;;17.30;67.90;;;;;;5027092;28;20107;-51
2023/08/28 00:19:34;;;;;;;5.20;2.88;;;17.20;68.10;;;;;;5028981;28;20041;-51
2023/08/28 00:22:03;;;;;;;2.67;2.47;;;17.20;68.00;;;;;;5024835;28;20079;-51
2023/08/28 00:24:30;;;;;;;3.95;2.83;;;17.20;68.00;;;;;;5027514;28;20069;-54
2023/08/28 00:27:02;;;;;;;3.45;3.20;;;17.20;68.10;;;;;;5027668;28;20117;-51
2023/08/28 00:29:28;;;;;;;3.42;3.15;;;17.20;68.10;;;;;;5003763;28;20054;-52
2023/08/28 00:31:56;;;;;;;19.65;4.22;;;17.20;68.10;;;;;;5010280;28;20472;-51
2023/08/28 00:34:23;;;;;;;4.28;3.88;;;17.10;68.20;;;;;;5011963;28;20144;-53
2023/08/28 00:36:50;;;;;;;5.05;2.95;;;17.10;68.30;;;;;;5013128;28;20137;-52
2023/08/28 00:39:25;;;;;;;4.80;2.80;;;17.10;68.20;;;;;;5014513;28;20065;-54
2023/08/28 00:41:52;;;;;;;2.80;2.60;;;17.10;68.30;;;;;;5031818;28;20486;-52
2023/08/28 00:44:18;;;;;;;2.85;2.65;;;17.10;68.20;;;;;;5013251;28;20037;-53
2023/08/28 00:46:45;;;;;;;3.38;3.08;;;17.10;68.30;;;;;;5030693;28;20043;-52
2023/08/28 00:49:13;;;;;;;2.90;2.70;;;17.10;68.40;;;;;;5032427;28;20061;-52
2023/08/28 00:51:40;;;;;;;2.90;2.70;;;17.00;68.20;;;;;;5013673;28;20053;-52
2023/08/28 00:54:12;;;;;;;4.18;2.97;;;17.00;68.20;;;;;;5014157;28;20053;-52
2023/08/28 00:56:49;;;;;;;3.97;3.50;;;16.90;68.00;;;;;;5010593;28;20053;-53
2023/08/28 00:59:17;;;;;;;3.42;3.15;;;16.90;68.30;;;;;;5012987;28;20061;-53
2023/08/28 01:01:47;;;;;;;3.65;3.22;;;16.90;68.30;;;;;;5013499;28;20104;-54
2023/08/28 01:04:13;;;;;;;3.65;3.40;;;16.90;68.50;;;;;;5012396;28;20103;-53
2023/08/28 01:07:08;;;;;;;3.63;3.30;;;16.90;68.50;;;;;;5029124;28;20499;-50
2023/08/28 01:10:00;;;;;;;3.53;3.22;;;16.90;69.00;;;;;;5026391;28;20033;-51
2023/08/28 01:12:55;;;;;;;2.92;2.72;;;16.90;69.10;;;;;;5025120;28;20038;-51
2023/08/28 01:15:25;;;;;;;3.38;3.10;;;16.90;69.00;;;;;;5030887;28;20128;-51
2023/08/28 01:18:03;;;;;;;3.65;3.30;;;16.90;68.60;;;;;;5030561;28;20045;-49
2023/08/28 01:20:33;;;;;;;3.92;3.63;;;16.80;68.80;;;;;;5008780;28;20048;-52
2023/08/28 01:23:16;;;;;;;4.97;3.53;;;16.80;68.70;;;;;;5010317;28;20038;-53
2023/08/28 01:25:50;;;;;;;3.88;3.55;;;16.80;69.30;;;;;;5024623;28;20029;-53
2023/08/28 01:28:17;;;;;;;3.45;3.15;;;16.80;69.10;;;;;;5028748;28;20482;-50
2023/08/28 01:30:48;;;;;;;3.28;3.05;;;16.80;68.90;;;;;;4991668;28;20092;-51
2023/08/28 01:33:19;;;;;;;3.40;3.20;;;16.80;69.00;;;;;;5013648;28;20601;-53
2023/08/28 01:36:04;;;;;;;3.83;3.28;;;16.80;68.90;;;;;;5012156;28;20040;-52
2023/08/28 01:38:39;;;;;;;3.70;3.35;;;16.80;69.50;;;;;;5009027;28;20044;-49
2023/08/28 01:41:12;;;;;;;3.47;3.17;;;16.80;69.20;;;;;;5028688;28;20104;-52
2023/08/28 01:43:45;;;;;;;6.47;3.90;;;16.80;69.10;;;;;;5013316;28;20466;-53
2023/08/28 01:46:15;;;;;;;3.80;3.50;;;16.70;69.20;;;;;;5027563;28;20428;-50
2023/08/28 01:48:53;;;;;;;4.35;3.42;;;16.70;69.10;;;;;;5013180;28;20045;-50
2023/08/28 01:51:22;;;;;;;3.75;3.45;;;16.70;69.20;;;;;;5012010;28;20049;-51
2023/08/28 01:53:49;;;;;;;4.25;3.78;;;16.70;69.00;;;;;;5011462;28;20069;-50
2023/08/28 01:56:22;;;;;;;4.75;3.67;;;16.70;69.00;;;;;;5009810;28;20076;-51
2023/08/28 01:58:54;;;;;;;4.95;3.28;;;16.70;69.30;;;;;;5011029;28;20050;-52
2023/08/28 02:01:25;;;;;;;3.38;3.13;;;16.70;69.30;;;;;;5028248;28;20053;-50
2023/08/28 02:03:55;;;;;;;3.15;2.85;;;16.60;69.10;;;;;;5013360;28;20137;-50
2023/08/28 02:06:23;;;;;;;3.30;3.05;;;16.60;69.10;;;;;;5012036;28;20097;-50
2023/08/28 02:08:51;;;;;;;3.30;3.08;;;16.60;69.00;;;;;;5006823;28;20569;-50
2023/08/28 02:11:30;;;;;;;3.35;3.05;;;16.60;69.00;;;;;;5010808;28;20075;-52
2023/08/28 02:13:57;;;;;;;3.45;3.15;;;16.60;69.10;;;;;;5029454;28;20077;-54
2023/08/28 02:16:25;;;;;;;3.90;3.60;;;16.60;69.00;;;;;;5029102;28;20100;-49
2023/08/28 02:18:52;;;;;;;13.05;4.32;;;16.60;69.00;;;;;;5012167;28;20095;-51
2023/08/28 02:21:19;;;;;;;3.63;3.33;;;16.50;68.90;;;;;;5028269;28;20129;-51
2023/08/28 02:23:46;;;;;;;3.05;2.83;;;16.50;68.80;;;;;;5012508;28;20854;-52
2023/08/28 02:26:13;;;;;;;3.78;3.47;;;16.50;68.80;;;;;;5010990;28;20033;-51
2023/08/28 02:28:42;;;;;;;3.30;3.00;;;16.40;68.80;;;;;;5028260;28;20578;-53
2023/08/28 02:31:11;;;;;;;3.63;3.33;;;16.40;68.80;;;;;;5027796;28;20034;-52
2023/08/28 02:33:42;;;;;;;3.28;2.83;;;16.40;68.80;;;;;;5030072;28;20112;-51
2023/08/28 02:36:13;;;;;;;2.80;2.60;;;16.40;68.80;;;;;;5028582;28;20068;-51
2023/08/28 02:38:43;;;;;;;2.55;2.35;;;16.30;68.50;;;;;;5029276;28;20045;-52
2023/08/28 02:41:14;;;;;;;3.60;2.60;;;16.30;69.10;;;;;;5021574;28;20512;-53
2023/08/28 02:43:42;;;;;;;2.85;2.65;;;16.30;68.50;;;;;;5030004;28;20029;-54
2023/08/28 02:46:11;;;;;;;3.33;2.50;;;16.20;68.40;;;;;;5028707;28;20100;-51
2023/08/28 02:48:40;;;;;;;3.63;3.33;;;16.20;68.40;;;;;;5028864;28;20041;-54
2023/08/28 02:51:13;;;;;;;3.00;2.80;;;16.20;68.50;;;;;;5009769;28;20123;-53
2023/08/28 02:53:39;;;;;;;3.85;3.17;;;16.20;68.80;;;;;;5011484;28;20140;-53
2023/08/28 02:56:22;;;;;;;3.97;2.90;;;16.10;69.20;;;;;;5027570;28;20463;-52
2023/08/28 02:58:53;;;;;;;4.15;3.30;;;16.10;70.00;;;;;;5005785;28;20136;-51
2023/08/28 03:01:20;;;;;;;4.30;3.90;;;16.10;69.70;;;;;;5011112;28;20049;-50
2023/08/28 03:03:47;;;;;;;3.65;3.35;;;16.10;69.60;;;;;;5028879;28;20037;-54
2023/08/28 03:06:14;;;;;;;3.50;3.10;;;16.10;69.80;;;;;;5028342;28;20041;-53
2023/08/28 03:08:41;;;;;;;3.38;3.10;;;16.10;69.70;;;;;;5010575;28;20053;-54
2023/08/28 03:11:08;;;;;;;3.67;2.78;;;16.10;69.60;;;;;;5027569;28;20061;-52
2023/08/28 03:13:35;;;;;;;3.90;3.17;;;16.10;69.50;;;;;;5003793;28;20388;-50
2023/08/28 03:16:02;;;;;;;6.50;3.25;;;16.00;69.50;;;;;;5028477;28;20060;-51
2023/08/28 03:18:29;;;;;;;3.83;3.35;;;16.00;70.10;;;;;;5010818;28;20080;-54
2023/08/28 03:20:56;;;;;;;3.50;3.20;;;16.00;69.30;;;;;;5011850;28;20046;-52
2023/08/28 03:23:27;;;;;;;3.50;2.63;;;16.00;69.30;;;;;;5010642;28;20052;-53
2023/08/28 03:25:56;;;;;;;3.03;2.78;;;16.00;69.20;;;;;;5010385;28;20535;-53
2023/08/28 03:28:25;;;;;;;3.38;2.33;;;16.00;68.90;;;;;;5006247;28;20472;-54
2023/08/28 03:30:59;;;;;;;2.70;2.50;;;15.90;68.80;;;;;;5028518;28;20042;-53
2023/08/28 03:33:26;;;;;;;3.58;2.70;;;15.90;68.80;;;;;;5028776;28;20049;-52
2023/08/28 03:35:56;;;;;;;2.95;2.45;;;15.90;68.60;;;;;;5011665;28;20045;-51
2023/08/28 03:38:23;;;;;;;3.22;2.92;;;15.80;68.80;;;;;;5028487;28;20045;-52
2023/08/28 03:40:52;;;;;;;3.22;2.78;;;15.80;68.70;;;;;;5027158;28;20045;-53
2023/08/28 03:43:19;;;;;;;3.40;3.10;;;15.80;68.90;;;;;;5028861;28;20041;-49
2023/08/28 03:45:46;;;;;;;2.90;2.63;;;15.80;69.20;;;;;;5009945;28;20042;-53
2023/08/28 03:48:15;;;;;;;4.03;3.72;;;15.80;69.30;;;;;;5007308;28;20041;-54
2023/08/28 03:50:42;;;;;;;3.80;3.50;;;15.70;69.60;;;;;;5009739;28;20037;-51
2023/08/28 03:53:10;;;;;;;4.93;4.30;;;15.70;69.80;;;;;;5010631;28;20557;-52
2023/08/28 03:55:38;;;;;;;4.22;3.60;;;15.70;70.10;;;;;;5008365;28;20045;-52
2023/08/28 03:58:07;;;;;;;4.80;4.10;;;15.70;70.40;;;;;;5011066;28;20047;-51
2023/08/28 04:00:34;;;;;;;5.55;4.72;;;15.70;70.80;;;;;;5006609;28;20746;-53
2023/08/28 04:03:01;;;;;;;4.20;3.90;;;15.70;71.00;;;;;;5027220;28;20052;-54
2023/08/28 04:05:32;;;;;;;6.13;4.18;;;15.70;71.20;;;;;;5009268;28;20034;-54
2023/08/28 04:08:04;;;;;;;4.55;4.07;;;15.70;71.40;;;;;;5027992;28;20493;-53
2023/08/28 04:10:31;;;;;;;4.30;3.90;;;15.70;71.50;;;;;;5014193;28;20136;-54
2023/08/28 04:12:58;;;;;;;3.63;3.33;;;15.70;71.50;;;;;;5014710;28;20124;-54
2023/08/28 04:15:28;;;;;;;4.32;3.92;;;15.80;71.60;;;;;;5013561;28;20061;-50
2023/08/28 04:17:57;;;;;;;3.95;3.58;;;15.80;71.70;;;;;;5030899;28;20064;-54
2023/08/28 04:20:24;;;;;;;3.95;3.55;;;15.80;71.60;;;;;;5026205;28;20047;-51
2023/08/28 04:22:53;;;;;;;4.25;3.80;;;15.80;71.60;;;;;;5014467;28;20034;-51
2023/08/28 04:25:22;;;;;;;4.70;3.72;;;15.80;71.60;;;;;;5010866;28;20041;-52
2023/08/28 04:27:49;;;;;;;4.03;3.63;;;15.80;71.60;;;;;;5032477;28;20464;-54
2023/08/28 04:30:17;;;;;;;4.72;3.92;;;15.80;71.70;;;;;;5011782;28;20409;-53
2023/08/28 04:32:46;;;;;;;3.63;3.38;;;15.80;71.60;;;;;;5014553;28;20041;-53
2023/08/28 04:35:13;;;;;;;4.28;3.92;;;15.80;71.30;;;;;;5014516;28;20045;-54
2023/08/28 04:37:42;;;;;;;3.60;3.30;;;15.80;71.20;;;;;;5013648;28;20045;-53
2023/08/28 04:40:10;;;;;;;3.05;2.85;;;15.80;71.00;;;;;;5011613;28;20052;-52
2023/08/28 04:42:41;;;;;;;3.38;3.08;;;15.80;70.70;;;;;;5013473;28;20172;-53
2023/08/28 04:45:11;;;;;;;3.67;3.08;;;15.80;70.60;;;;;;5014151;28;20644;-50
2023/08/28 04:47:37;;;;;;;4.28;3.50;;;15.80;70.50;;;;;;5031720;28;20073;-54
2023/08/28 04:50:09;;;;;;;4.45;3.42;;;15.80;70.30;;;;;;5014904;28;20125;-50
2023/08/28 04:52:37;;;;;;;3.00;2.80;;;15.70;70.40;;;;;;5009798;28;20054;-51
2023/08/28 04:55:04;;;;;;;4.10;3.70;;;15.70;70.50;;;;;;5006481;28;20053;-54
2023/08/28 04:57:32;;;;;;;3.60;3.03;;;15.70;70.60;;;;;;5017215;28;20046;-53
2023/08/28 04:59:59;;;;;;;5.32;3.47;;;15.70;70.70;;;;;;5029942;28;20091;-54
2023/08/28 05:02:26;;;;;;;3.55;3.25;;;15.70;71.00;;;;;;5026699;28;20095;-54
2023/08/28 05:04:53;;;;;;;3.40;3.20;;;15.70;71.30;;;;;;5020410;28;20103;-51
2023/08/28 05:07:21;;;;;;;4.65;3.42;;;15.70;71.40;;;;;;5012105;28;20041;-54
2023/08/28 05:09:48;;;;;;;6.10;4.30;;;15.70;71.60;;;;;;5008445;28;20045;-54
2023/08/28 05:12:15;;;;;;;3.58;3.28;;;15.70;71.80;;;;;;5030543;28;20129;-52
2023/08/28 05:14:41;;;;;;;4.18;3.80;;;15.70;71.90;;;;;;5031443;28;20187;-52
2023/08/28 05:17:08;;;;;;;3.35;3.13;;;15.70;71.90;;;;;;5007900;28;20172;-50
2023/08/28 05:19:35;;;;;;;3.83;3.53;;;15.70;71.90;;;;;;5001341;28;20053;-52
2023/08/28 05:22:02;;;;;;;3.85;3.55;;;15.70;71.80;;;;;;5022166;28;20046;-52
2023/08/28 05:24:28;;;;;;;4.65;4.00;;;15.70;71.80;;;;;;5019883;28;20041;-50
2023/08/28 05:26:55;;;;;;;5.22;3.72;;;15.80;71.90;;;;;;5010184;28;20041;-50
2023/08/28 05:29:22;;;;;;;4.47;3.72;;;15.80;72.00;;;;;;5023119;28;20087;-50
2023/08/28 05:31:49;;;;;;;3.55;2.90;;;15.80;72.10;;;;;;5023725;28;20077;-50
2023/08/28 05:34:16;;;;;;;3.28;2.92;;;15.80;72.00;;;;;;5011736;28;20529;-51
2023/08/28 05:36:43;;;;;;;5.10;4.22;;;15.80;72.10;;;;;;5007614;28;20041;-54
2023/08/28 05:39:09;;;;;;;3.05;2.85;;;15.90;72.20;;;;;;5027135;28;20052;-53
2023/08/28 05:41:36;;;;;;;3.88;3.58;;;15.90;72.30;;;;;;5011506;28;20045;-54
2023/08/28 05:44:03;;;;;;;3.55;3.25;;;15.90;72.40;;;;;;5032076;28;20049;-53
2023/08/28 05:46:30;;;;;;;3.45;3.15;;;15.90;72.30;;;;;;5008914;28;20184;-54
2023/08/28 05:48:57;;;;;;;4.40;4.00;;;16.00;72.60;;;;;;5008833;28;20050;-54
2023/08/28 05:51:24;;;;;;;3.70;3.40;;;16.00;72.80;;;;;;5008726;28;20720;-52
2023/08/28 05:53:50;;;;;;;4.43;3.78;;;16.00;72.80;;;;;;5004996;28;20429;-54
2023/08/28 05:56:17;;;;;;;3.85;3.28;;;16.10;73.00;;;;;;5008031;28;20054;-54
2023/08/28 05:58:44;;;;;;;4.15;3.80;;;16.10;73.10;;;;;;5010893;28;20041;-53
2023/08/28 06:01:11;;;;;;;4.13;3.72;;;16.20;73.30;;;;;;5011164;28;20073;-54
2023/08/28 06:03:38;;;;;;;5.47;3.50;;;16.20;73.40;;;;;;5025151;28;20115;-53
2023/08/28 06:06:05;;;;;;;4.07;3.70;;;16.30;73.60;;;;;;5028936;28;20112;-54
2023/08/28 06:08:34;;;;;;;4.57;3.92;;;16.30;73.50;;;;;;5009132;28;20099;-53
2023/08/28 06:11:01;;;;;;;5.10;4.28;;;16.40;73.50;;;;;;5011380;28;20504;-53
2023/08/28 06:13:28;;;;;;;3.40;3.10;;;16.40;73.30;;;;;;5006061;28;20622;-54
2023/08/28 06:15:56;;;;;;;5.65;3.10;;;16.50;73.30;;;;;;5027978;28;20095;-54
2023/08/28 06:18:23;;;;;;;6.30;4.07;;;16.50;73.00;;;;;;5010774;28;20111;-54
2023/08/28 06:20:49;;;;;;;3.88;3.45;;;16.60;73.10;;;;;;5009190;28;20087;-54
2023/08/28 06:23:17;;;;;;;4.82;3.90;;;16.60;73.40;;;;;;5018732;28;20069;-54
2023/08/28 06:25:46;;;;;;;4.10;3.20;;;16.60;73.30;;;;;;5010574;28;20088;-54
2023/08/28 06:28:13;;;;;;;5.53;3.92;;;16.60;73.50;;;;;;4995414;28;20041;-54
2023/08/28 06:30:40;;;;;;;5.35;3.90;;;16.70;73.60;;;;;;5029237;28;20045;-54
2023/08/28 06:33:07;;;;;;;3.83;3.53;;;16.70;73.60;;;;;;5011996;28;20140;-54
2023/08/28 06:35:33;;;;;;;4.18;3.50;;;16.80;73.50;;;;;;5030105;28;20156;-54
2023/08/28 06:38:00;;;;;;;4.30;3.90;;;16.80;73.60;;;;;;5029351;28;20049;-54
2023/08/28 06:40:27;;;;;;;3.75;3.42;;;16.80;73.50;;;;;;5030180;28;20575;-53
2023/08/28 06:42:53;;;;;;;3.83;3.40;;;16.90;73.30;;;;;;5031974;28;20116;-54
2023/08/28 06:45:20;;;;;;;4.43;3.88;;;16.90;73.00;;;;;;5028035;28;20065;-54
2023/08/28 06:47:47;;;;;;;8.38;4.00;;;17.00;73.00;;;;;;5027871;28;20112;-53
2023/08/28 06:50:13;;;;;;;5.47;3.88;;;17.00;73.30;;;;;;5029316;28;20052;-50
2023/08/28 06:52:41;;;;;;;4.85;3.92;;;17.00;72.90;;;;;;5023296;28;20077;-54
2023/08/28 06:55:08;;;;;;;4.53;3.80;;;17.00;72.90;;;;;;5028510;28;20033;-53
2023/08/28 06:57:35;;;;;;;4.32;3.63;;;17.10;73.00;;;;;;5028156;28;20124;-54
2023/08/28 07:00:03;;;;;;;6.18;3.58;;;17.10;73.60;;;;;;5026992;28;20132;-52
2023/08/28 07:02:31;;;;;;;5.47;4.18;;;17.10;72.90;;;;;;5024048;28;20667;-53
2023/08/28 07:04:58;;;;;;;4.25;3.58;;;17.20;73.00;;;;;;5026790;28;20037;-54
2023/08/28 07:07:25;;;;;;;5.50;4.43;;;17.20;73.00;;;;;;5028384;28;20052;-52
2023/08/28 07:09:51;;;;;;;5.80;3.63;;;17.20;73.00;;;;;;5028708;28;20554;-54
2023/08/28 07:12:18;;;;;;;4.63;3.58;;;17.20;73.20;;;;;;5028105;28;20045;-53
2023/08/28 07:15:08;;;;;;;4.68;3.50;;;17.30;73.10;;;;;;5029590;28;20064;-53
2023/08/28 07:17:35;;;;;;;4.13;3.58;;;17.30;73.60;;;;;;5024334;28;20123;-54
2023/08/28 07:20:04;;;;;;;4.85;3.83;;;17.30;73.10;;;;;;5029513;28;20037;-50
2023/08/28 07:22:31;;;;;;;7.03;4.53;;;17.40;73.10;;;;;;5027877;28;20072;-52
2023/08/28 07:24:57;;;;;;;5.28;3.88;;;17.40;73.20;;;;;;5028170;28;20052;-53
2023/08/28 07:27:25;;;;;;;5.32;4.28;;;17.40;73.10;;;;;;5028244;28;20123;-53
2023/08/28 07:29:52;;;;;;;5.68;4.45;;;17.50;73.20;;;;;;5028206;28;20038;-52
2023/08/28 07:32:18;;;;;;;5.50;4.30;;;17.50;73.20;;;;;;5027780;28;20419;-53
2023/08/28 07:34:46;;;;;;;5.28;4.35;;;17.50;73.20;;;;;;5025713;28;20116;-54
2023/08/28 07:37:12;;;;;;;4.80;4.30;;;17.50;73.20;;;;;;5023180;28;20496;-54
2023/08/28 07:39:39;;;;;;;5.07;4.38;;;17.60;73.30;;;;;;5021817;28;20076;-54
2023/08/28 07:42:06;;;;;;;5.60;4.20;;;17.60;73.70;;;;;;5018241;28;20038;-53
2023/08/28 07:44:32;;;;;;;5.30;4.40;;;17.70;73.90;;;;;;5032512;28;20069;-54
2023/08/28 07:46:59;;;;;;;5.85;5.00;;;17.70;73.70;;;;;;5032424;28;20065;-54
2023/08/28 07:49:26;;;;;;;8.07;5.30;;;17.70;73.90;;;;;;5026476;28;20116;-54
2023/08/28 07:51:53;;;;;;;8.02;5.38;;;17.80;74.00;;;;;;5023169;28;20037;-53
2023/08/28 07:54:19;;;;;;;8.30;5.93;;;17.90;74.00;;;;;;5030278;28;20088;-54
2023/08/28 07:56:46;;;;;;;6.45;5.10;;;17.90;73.90;;;;;;5030542;28;20076;-55
2023/08/28 07:59:12;;;;;;;7.80;6.40;;;18.00;73.80;;;;;;5027942;28;20072;-54
2023/08/28 08:01:39;;;;;;;7.40;5.22;;;18.00;73.50;;;;;;5032257;28;20479;-54
2023/08/28 08:04:06;;;;;;;6.68;5.68;;;18.10;73.60;;;;;;5032340;28;20041;-54
2023/08/28 08:06:35;;;;;;;8.25;5.60;;;18.20;74.00;;;;;;5032132;28;20107;-54
2023/08/28 08:09:01;;;;;;;6.90;5.82;;;18.30;74.40;;;;;;5031769;28;20041;-54
2023/08/28 08:11:28;;;;;;;7.45;6.63;;;18.40;74.80;;;;;;5023721;28;20065;-54
2023/08/28 08:13:55;;;;;;;9.10;6.18;;;18.50;74.40;;;;;;5026351;28;20105;-54
2023/08/28 08:16:21;;;;;;;7.55;5.82;;;18.60;73.90;;;;;;5026033;28;20071;-54
2023/08/28 08:18:48;;;;;;;6.13;5.30;;;18.70;74.00;;;;;;5027227;28;20068;-55
2023/08/28 08:21:15;;;;;;;6.95;5.47;;;18.80;73.90;;;;;;5031656;28;20134;-54
2023/08/28 08:23:42;;;;;;;8.13;5.55;;;19.00;73.50;;;;;;5031881;28;20044;-52
2023/08/28 08:26:09;;;;;;;6.70;6.03;;;19.10;73.40;;;;;;5031054;28;20041;-54
2023/08/28 08:28:38;;;;;;;7.10;6.28;;;19.30;72.80;;;;;;5030668;28;20131;-54
2023/08/28 08:31:04;;;;;;;7.22;6.22;;;19.40;73.00;;;;;;5031151;28;20044;-54
2023/08/28 08:33:31;;;;;;;6.18;5.38;;;19.50;73.00;;;;;;5031646;28;20044;-54
2023/08/28 08:35:58;;;;;;;8.70;5.53;;;19.60;72.80;;;;;;5031505;28;20045;-54
2023/08/28 08:38:25;;;;;;;8.90;6.07;;;19.70;72.20;;;;;;5030693;28;20479;-54
2023/08/28 08:40:54;;;;;;;7.13;6.13;;;19.80;71.50;;;;;;5031749;28;20049;-54
2023/08/28 08:43:21;;;;;;;9.25;7.40;;;19.90;71.20;;;;;;5031286;28;20462;-53
2023/08/28 08:45:50;;;;;;;9.35;7.18;;;20.00;70.40;;;;;;5030867;28;20095;-54
2023/08/28 08:48:18;;;;;;;8.80;8.00;;;20.00;69.80;;;;;;5030890;28;20088;-54
2023/08/28 08:50:47;;;;;;;13.85;8.30;;;20.00;69.80;;;;;;5013044;28;20080;-54
2023/08/28 08:53:27;;;;;;;9.13;8.10;;;20.00;69.70;;;;;;5031019;28;20045;-54
2023/08/28 08:56:00;;;;;;;8.88;7.80;;;20.00;70.20;;;;;;5029995;28;20472;-54
2023/08/28 08:58:28;;;;;;;9.88;8.40;;;20.00;69.60;;;;;;5029994;28;20041;-54
2023/08/28 09:00:54;;;;;;;9.02;8.23;;;20.00;69.70;;;;;;5030546;28;20124;-53
2023/08/28 09:03:21;;;;;;;9.40;8.52;;;20.00;69.70;;;;;;5029837;28;20041;-53
2023/08/28 09:05:49;;;;;;;8.48;7.68;;;20.00;69.80;;;;;;5025512;28;20581;-55
2023/08/28 09:08:18;;;;;;;9.27;8.38;;;20.00;70.20;;;;;;5026774;28;20121;-54
2023/08/28 09:10:46;;;;;;;8.10;7.30;;;20.00;70.00;;;;;;5024663;28;20112;-54
2023/08/28 09:13:13;;;;;;;7.18;6.47;;;20.00;69.60;;;;;;5025003;28;20633;-54
2023/08/28 09:15:39;;;;;;;7.35;6.65;;;20.10;70.00;;;;;;5030243;28;20045;-55
2023/08/28 09:18:07;;;;;;;6.22;5.50;;;20.20;69.60;;;;;;5012326;28;20135;-54
2023/08/28 09:20:34;;;;;;;5.50;5.03;;;20.20;69.10;;;;;;5030203;28;20041;-54
2023/08/28 09:23:01;;;;;;;5.30;4.90;;;20.30;68.70;;;;;;5030015;28;20605;-53
2023/08/28 09:25:28;;;;;;;8.73;5.63;;;20.30;68.50;;;;;;5028597;28;20041;-54
2023/08/28 09:27:56;;;;;;;6.50;5.80;;;20.40;68.50;;;;;;5012922;28;20041;-53
2023/08/28 09:30:26;;;;;;;7.60;6.25;;;20.50;68.20;;;;;;5029837;28;20193;-54
2023/08/28 09:32:53;;;;;;;6.50;5.95;;;20.50;68.00;;;;;;5030323;28;20041;-54
2023/08/28 09:35:20;;;;;;;6.03;5.43;;;20.50;67.80;;;;;;5030121;28;20053;-54
2023/08/28 09:37:57;;;;;;;7.22;6.55;;;20.60;67.80;;;;;;5029470;28;20133;-55
2023/08/28 09:40:42;;;;;;;8.40;6.30;;;20.60;67.20;;;;;;5030510;28;20496;-55
2023/08/28 09:43:12;;;;;;;6.47;5.88;;;20.70;68.00;;;;;;5029545;28;20128;-55
2023/08/28 09:45:39;;;;;;;7.63;5.57;;;20.70;67.80;;;;;;5029844;28;20596;-54
2023/08/28 09:48:07;;;;;;;6.43;5.57;;;20.80;67.70;;;;;;5029890;28;20469;-54
2023/08/28 09:50:37;;;;;;;7.05;5.15;;;20.90;67.60;;;;;;5028649;28;20560;-51
2023/08/28 09:53:10;;;;;;;6.43;5.55;;;20.90;67.50;;;;;;5028686;28;20041;-55
2023/08/28 09:55:50;;;;;;;6.32;4.88;;;21.10;67.10;;;;;;5028130;28;20045;-55
2023/08/28 09:58:17;;;;;;;6.15;4.55;;;21.20;66.60;;;;;;5027199;28;20130;-54
2023/08/28 10:00:44;;;;;;;4.68;3.70;;;21.20;66.60;;;;;;5029096;28;20148;-55
2023/08/28 10:03:12;;;;;;;8.65;3.72;;;21.30;66.30;;;;;;5029108;28;20055;-55
2023/08/28 10:05:44;;;;;;;4.35;3.67;;;21.40;65.50;;;;;;5028724;28;20128;-55
2023/08/28 10:08:12;;;;;;;5.50;3.28;;;21.60;65.80;;;;;;5027979;28;20045;-55
2023/08/28 10:10:47;;;;;;;3.15;2.45;;;21.60;64.90;;;;;;5029006;28;20053;-54
2023/08/28 10:13:19;;;;;;;2.97;2.60;;;21.70;64.20;;;;;;5027039;28;20534;-55
2023/08/28 10:16:00;;;;;;;4.13;3.83;;;21.90;64.20;;;;;;5028621;28;20053;-55
2023/08/28 10:18:37;;;;;;;5.68;3.95;;;22.00;63.20;;;;;;5028970;28;20061;-55
2023/08/28 10:21:06;;;;;;;3.15;2.58;;;22.10;63.60;;;;;;5027287;28;20120;-55
2023/08/28 10:23:34;;;;;;;3.97;2.92;;;22.20;63.60;;;;;;5028789;28;20048;-55
2023/08/28 10:26:02;;;;;;;5.38;2.53;;;22.20;62.90;;;;;;5025780;28;20037;-54
2023/08/28 10:28:36;;;;;;;4.97;2.55;;;22.40;62.70;;;;;;5064612;28;20491;-53
2023/08/28 10:31:05;;;;;;;3.50;2.53;;;22.40;62.20;;;;;;5064876;28;20041;-52
2023/08/28 10:33:34;;;;;;;4.15;2.80;;;22.60;62.70;;;;;;5056589;28;20107;-52
2023/08/28 10:36:02;;;;;;;2.78;2.13;;;22.60;62.30;;;;;;5046735;28;20077;-52
2023/08/28 10:38:29;;;;;;;4.43;2.22;;;22.70;61.00;;;;;;5041185;28;20606;-53
2023/08/28 10:40:59;;;;;;;2.55;2.05;;;22.70;60.80;;;;;;5045305;28;20047;-54
2023/08/28 10:43:27;;;;;;;2.30;2.10;;;22.70;60.40;;;;;;5048995;28;20037;-55
2023/08/28 10:45:56;;;;;;;2.67;1.70;;;22.80;60.20;;;;;;5045737;28;20053;-54
2023/08/28 10:48:23;;;;;;;2.28;1.55;;;22.80;60.30;;;;;;5045973;28;20397;-53
2023/08/28 10:50:56;;;;;;;3.88;2.13;;;22.80;60.10;;;;;;5040010;28;20064;-55
2023/08/28 10:53:24;;;;;;;3.33;2.20;;;22.90;59.40;;;;;;5045759;28;20810;-54
2023/08/28 10:55:53;;;;;;;1.90;1.73;;;22.90;59.90;;;;;;5047176;28;20096;-54
2023/08/28 10:58:21;;;;;;;2.08;1.40;;;23.00;59.60;;;;;;5046893;28;20033;-55
2023/08/28 11:01:14;;;;;;;3.10;1.50;;;23.00;59.70;;;;;;5057887;28;20052;-54
2023/08/28 11:03:52;;;;;;;1.58;0.98;;;23.10;59.30;;;;;;5038037;28;20041;-54
2023/08/28 11:06:46;;;;;;;1.75;1.23;;;23.10;58.40;;;;;;5043639;28;20573;-55
2023/08/28 11:09:28;;;;;;;0.80;0.80;;;23.20;57.80;;;;;;5043713;28;20049;-54
2023/08/28 11:11:57;;;;;;;1.38;0.98;;;23.20;57.10;;;;;;5067214;28;20561;-54
2023/08/28 11:14:38;;;;;;;1.10;0.85;;;23.20;57.60;;;;;;5043564;28;20057;-54
2023/08/28 11:17:18;;;;;;;1.38;1.23;;;23.20;57.30;;;;;;5045324;28;20127;-54
2023/08/28 11:20:00;;;;;;;2.33;1.30;;;23.30;57.90;;;;;;5044988;28;20037;-55
2023/08/28 11:22:33;;;;;;;2.00;1.17;;;23.30;57.80;;;;;;5046599;28;20095;-54
2023/08/28 11:25:01;;;;;;;2.53;1.33;;;23.40;57.20;;;;;;5040526;28;20120;-54
2023/08/28 11:27:33;;;;;;;2.20;0.98;;;23.40;57.90;;;;;;5045211;28;20048;-54
2023/08/28 11:30:04;;;;;;;1.50;1.27;;;23.50;57.20;;;;;;5036306;28;20041;-54
2023/08/28 11:32:32;;;;;;;2.50;1.33;;;23.60;57.90;;;;;;5043455;28;20041;-53
2023/08/28 11:35:04;;;;;;;1.45;1.20;;;23.60;57.50;;;;;;5044274;28;20447;-54
2023/08/28 11:37:33;;;;;;;1.83;1.73;;;23.70;57.00;;;;;;5042982;28;20125;-54
2023/08/28 11:40:00;;;;;;;2.25;1.27;;;23.70;57.20;;;;;;5030666;28;20135;-54
2023/08/28 11:42:28;;;;;;;1.27;1.17;;;23.80;56.90;;;;;;5031874;28;20080;-54
2023/08/28 11:44:55;;;;;;;2.45;1.10;;;23.80;56.50;;;;;;5026878;28;20111;-54
2023/08/28 11:47:32;;;;;;;3.35;1.02;;;24.00;56.80;;;;;;5031188;28;20068;-54
2023/08/28 11:50:05;;;;;;;1.00;1.00;;;24.00;56.00;;;;;;5031833;28;20037;-55
2023/08/28 11:52:32;;;;;;;1.45;1.35;;;24.10;55.90;;;;;;5022934;28;20046;-54
2023/08/28 11:55:03;;;;;;;2.17;1.10;;;24.20;56.10;;;;;;5025786;28;20060;-54
2023/08/28 11:57:32;;;;;;;0.88;0.88;;;24.30;55.50;;;;;;5027910;28;20045;-54
2023/08/28 12:00:00;;;;;;;1.50;1.20;;;24.40;55.30;;;;;;5027224;28;20049;-54
2023/08/28 12:02:42;;;;;;;1.75;1.20;;;24.50;55.30;;;;;;5031525;28;20057;-53
2023/08/28 12:05:10;;;;;;;1.02;1.00;;;24.50;55.60;;;;;;5029428;28;20041;-54
2023/08/28 12:07:43;;;;;;;1.48;1.20;;;24.60;55.40;;;;;;5026787;28;20053;-53
2023/08/28 12:10:12;;;;;;;1.90;1.00;;;24.70;55.10;;;;;;5030975;28;20397;-52
2023/08/28 12:12:39;;;;;;;1.25;1.00;;;24.70;54.60;;;;;;5030106;28;20104;-55
2023/08/28 12:15:08;;;;;;;1.58;1.20;;;24.70;54.80;;;;;;5031657;28;20029;-54
2023/08/28 12:17:36;;;;;;;1.40;1.13;;;24.80;54.50;;;;;;5031241;28;20065;-51
2023/08/28 12:20:06;;;;;;;1.98;1.00;;;24.90;54.30;;;;;;5029289;28;20056;-53
2023/08/28 12:22:42;;;;;;;1.00;0.90;;;25.00;54.30;;;;;;5030668;28;20504;-53
2023/08/28 12:25:09;;;;;;;2.15;1.20;;;25.00;52.90;;;;;;5030769;28;20041;-52
2023/08/28 12:27:35;;;;;;;1.00;1.00;;;25.10;53.80;;;;;;5031527;28;20071;-53
2023/08/28 12:30:03;;;;;;;1.38;1.10;;;25.10;53.80;;;;;;5024656;28;20451;-52
2023/08/28 12:32:30;;;;;;;1.27;0.90;;;25.20;53.40;;;;;;5029211;28;20124;-54
2023/08/28 12:35:11;;;;;;;1.73;1.00;;;25.20;52.90;;;;;;5031252;28;20045;-54
2023/08/28 12:37:37;;;;;;;1.85;0.90;;;25.30;52.10;;;;;;5028605;28;20115;-55
2023/08/28 12:40:06;;;;;;;1.17;1.10;;;25.20;52.60;;;;;;5031000;28;20070;-53
2023/08/28 12:42:38;;;;;;;2.88;1.70;;;25.20;52.70;;;;;;5033500;28;20230;-54
2023/08/28 12:45:05;;;;;;;4.05;1.35;;;25.20;52.10;;;;;;5027484;28;20041;-53
2023/08/28 12:47:32;;;;;;;1.83;0.75;;;25.20;52.30;;;;;;5027548;28;20128;-54
2023/08/28 12:49:59;;;;;;;1.10;1.00;;;25.20;52.40;;;;;;5031289;28;20038;-54
2023/08/28 12:52:26;;;;;;;1.25;1.15;;;25.10;52.10;;;;;;5034915;28;20080;-55
2023/08/28 12:54:54;;;;;;;0.80;0.80;;;25.10;52.00;;;;;;5025195;28;20503;-54
2023/08/28 12:57:21;;;;;;;1.20;0.90;;;25.10;51.80;;;;;;5038054;28;20048;-55